Time;durP1;ratioP1;P1;durP2;ratioP2;P2;SDS_P1;SDS_P2;PMS_P1;PMS_P2;Temp;Humidity;BMP_temperature;BMP_pressure;BME280_temperature;BME280_humidity;BME280_pressure;Samples;Min_cycle;Max_cycle;Signal;HPM_P1;HPM_P2
2023/02/24 00:01:23;;;;;;;12.47;9.50;;;;;;;9.67;73.33;95693.47;4967960;28;20424;-72
2023/02/24 00:03:56;;;;;;;14.07;8.33;;;;;;;9.68;73.04;95697.75;4967936;28;20416;-69
2023/02/24 00:06:39;;;;;;;12.07;8.57;;;;;;;9.70;72.84;95695.91;4967700;28;20411;-69
2023/02/24 00:09:18;;;;;;;12.90;9.30;;;;;;;9.75;72.60;95688.66;4968224;28;20413;-70
2023/02/24 00:11:47;;;;;;;11.17;7.77;;;;;;;9.83;72.01;95690.91;4967839;28;20514;-69
2023/02/24 00:14:18;;;;;;;13.63;7.60;;;;;;;9.66;72.59;95690.00;4967848;28;20464;-69
2023/02/24 00:16:45;;;;;;;10.23;9.00;;;;;;;9.63;72.62;95686.69;4968228;28;21216;-69
2023/02/24 00:19:18;;;;;;;10.63;8.30;;;;;;;9.61;73.25;95680.66;4968017;28;20412;-69
2023/02/24 00:21:43;;;;;;;11.43;8.40;;;;;;;9.52;73.38;95680.22;4968031;28;20779;-69
2023/02/24 00:24:10;;;;;;;9.80;7.90;;;;;;;9.55;73.78;95679.22;4967883;28;20560;-69
2023/02/24 00:26:35;;;;;;;11.70;9.20;;;;;;;9.59;73.08;95679.91;4967715;28;20243;-69
2023/02/24 00:29:05;;;;;;;14.17;9.70;;;;;;;9.53;73.47;95679.28;4967901;28;20819;-69
2023/02/24 00:31:31;;;;;;;10.73;8.20;;;;;;;9.52;72.51;95680.22;4954814;28;20198;-68
2023/02/24 00:34:00;;;;;;;11.93;8.90;;;;;;;9.47;73.85;95670.91;4952246;28;20414;-69
2023/02/24 00:36:32;;;;;;;13.00;8.57;;;;;;;9.50;72.69;95666.38;4951909;28;20256;-68
2023/02/24 00:39:09;;;;;;;12.70;9.80;;;;;;;9.53;72.69;95676.66;4951977;28;20417;-70
2023/02/24 00:41:39;;;;;;;14.23;8.70;;;;;;;9.56;72.22;95669.59;4952204;28;20436;-68
2023/02/24 00:44:07;;;;;;;14.43;9.10;;;;;;;9.67;72.23;95672.50;4952110;28;20417;-68
2023/02/24 00:46:43;;;;;;;9.90;8.33;;;;;;;9.65;71.74;95674.34;4950345;29;20421;-67
2023/02/24 00:49:15;;;;;;;16.13;9.70;;;;;;;9.61;72.23;95668.41;4951678;28;20416;-69
2023/02/24 00:51:43;;;;;;;14.43;9.30;;;;;;;9.62;71.78;95661.44;4951658;28;20508;-70
2023/02/24 00:54:13;;;;;;;13.40;9.13;;;;;;;9.60;71.95;95660.66;4951814;28;20526;-69
2023/02/24 00:56:40;;;;;;;9.40;8.33;;;;;;;9.60;71.63;95663.28;4949924;28;20445;-69
2023/02/24 00:59:06;;;;;;;9.77;8.20;;;;;;;9.63;71.43;95653.47;4951682;28;20418;-69
2023/02/24 01:01:33;;;;;;;12.83;9.00;;;;;;;9.63;72.14;95652.63;4951482;28;20753;-70
2023/02/24 01:04:04;;;;;;;12.27;9.50;;;;;;;9.68;72.05;95653.22;4951461;28;20174;-67
2023/02/24 01:06:30;;;;;;;17.47;8.37;;;;;;;9.80;70.95;95654.34;4951250;28;20413;-70
2023/02/24 01:08:56;;;;;;;12.73;7.90;;;;;;;9.72;70.96;95650.38;4951415;28;20420;-70
2023/02/24 01:14:18;;;;;;;11.10;8.13;;;;;;;9.53;72.46;95644.41;4951648;29;20538;-68
2023/02/24 01:16:49;;;;;;;11.87;8.30;;;;;;;9.52;72.03;95640.09;4951099;28;20421;-68
2023/02/24 01:19:15;;;;;;;16.90;9.37;;;;;;;9.47;72.62;95634.22;4951169;28;20457;-69
2023/02/24 01:21:41;;;;;;;15.30;9.37;;;;;;;9.46;72.17;95649.09;4951138;28;20477;-69
2023/02/24 01:24:06;;;;;;;14.30;8.13;;;;;;;9.44;72.82;95637.84;4951417;28;20875;-70
2023/02/24 01:26:32;;;;;;;11.23;8.50;;;;;;;9.44;72.74;95637.84;4951087;28;20171;-70
2023/02/24 01:28:57;;;;;;;9.00;8.07;;;;;;;9.54;72.74;95643.47;4952382;28;20166;-69
2023/02/24 01:31:23;;;;;;;12.07;8.40;;;;;;;9.44;72.63;95640.47;4965477;28;20252;-70
2023/02/24 01:33:49;;;;;;;12.87;8.70;;;;;;;9.39;72.74;95634.63;4970983;28;20190;-69
2023/02/24 01:36:21;;;;;;;11.43;8.97;;;;;;;9.47;72.18;95640.34;4970289;28;20421;-69
2023/02/24 01:38:48;;;;;;;16.00;9.80;;;;;;;9.48;73.04;95631.53;4970811;28;20520;-69
2023/02/24 01:41:17;;;;;;;13.50;9.03;;;;;;;9.56;72.50;95633.75;4970513;28;20923;-70
2023/02/24 01:43:57;;;;;;;11.60;9.57;;;;;;;9.39;73.74;95632.00;4970369;28;20467;-69
2023/02/24 01:46:26;;;;;;;13.30;9.90;;;;;;;9.33;73.49;95630.56;4969993;28;20416;-69
2023/02/24 01:48:56;;;;;;;15.10;9.27;;;;;;;9.47;73.17;95623.75;4970073;28;20443;-69
2023/02/24 01:51:23;;;;;;;11.53;9.83;;;;;;;9.42;73.57;95615.28;4968645;28;21017;-69
2023/02/24 01:53:49;;;;;;;15.30;10.60;;;;;;;9.41;73.41;95630.16;4969944;28;20413;-70
2023/02/24 01:56:15;;;;;;;13.83;9.37;;;;;;;9.43;73.49;95623.09;4969667;28;20413;-69
2023/02/24 01:58:41;;;;;;;10.00;9.00;;;;;;;9.49;72.79;95612.28;4969938;28;20448;-69
2023/02/24 02:01:09;;;;;;;10.97;9.13;;;;;;;9.54;73.33;95605.03;4969820;28;20456;-69
2023/02/24 02:03:39;;;;;;;9.97;7.90;;;;;;;9.50;72.42;95608.75;4969909;28;20456;-70
2023/02/24 02:06:07;;;;;;;11.60;10.10;;;;;;;9.46;73.54;95611.59;4972669;28;20409;-70
2023/02/24 02:08:35;;;;;;;14.33;8.47;;;;;;;9.49;72.62;95600.94;4971799;28;20406;-70
2023/02/24 02:11:07;;;;;;;9.20;8.23;;;;;;;9.47;73.57;95605.41;4970587;28;20944;-70
2023/02/24 02:13:36;;;;;;;10.80;9.30;;;;;;;9.47;73.53;95601.06;4970098;28;20408;-69
2023/02/24 02:16:24;;;;;;;17.30;9.37;;;;;;;9.36;73.02;95600.75;4969275;28;20413;-69
2023/02/24 02:19:11;;;;;;;10.80;8.63;;;;;;;9.29;73.97;95596.78;4969493;28;20408;-69
2023/02/24 02:22:12;;;;;;;15.90;9.80;;;;;;;9.21;73.85;95601.53;4969312;28;20427;-68
2023/02/24 02:24:52;;;;;;;12.50;9.07;;;;;;;9.36;73.63;95594.69;4969318;28;20423;-69
2023/02/24 02:27:43;;;;;;;10.30;8.90;;;;;;;9.44;72.90;95590.72;4969012;28;20460;-70
2023/02/24 02:30:43;;;;;;;11.87;9.03;;;;;;;9.39;72.21;95599.75;4965178;28;21054;-69
2023/02/24 02:33:20;;;;;;;16.00;9.97;;;;;;;9.33;72.54;95596.53;4948932;29;21094;-68
2023/02/24 02:36:06;;;;;;;16.13;8.80;;;;;;;9.25;72.75;95588.22;4949913;28;20425;-69
2023/02/24 02:38:38;;;;;;;13.20;9.57;;;;;;;9.26;72.84;95589.91;4949716;28;20924;-69
2023/02/24 02:41:13;;;;;;;11.27;8.80;;;;;;;9.24;72.75;95593.53;4949666;28;20430;-70
2023/02/24 02:43:42;;;;;;;15.97;9.50;;;;;;;9.23;73.17;95594.47;4950000;28;20421;-70
2023/02/24 02:46:16;;;;;;;14.83;10.50;;;;;;;9.23;73.31;95599.69;4949675;28;21199;-69
2023/02/24 02:48:52;;;;;;;27.90;11.77;;;;;;;9.23;72.94;95597.91;4949581;29;20532;-69
2023/02/24 02:51:23;;;;;;;13.43;9.77;;;;;;;9.27;72.61;95586.38;4949508;29;20547;-69
2023/02/24 02:54:03;;;;;;;15.30;8.70;;;;;;;9.25;72.87;95588.22;4949349;28;21269;-69
2023/02/24 02:57:05;;;;;;;12.20;9.40;;;;;;;9.30;72.08;95587.97;4949401;28;20406;-69
2023/02/24 02:59:36;;;;;;;14.90;10.50;;;;;;;9.23;72.49;95578.75;4948806;28;20433;-70
2023/02/24 03:02:13;;;;;;;11.47;9.27;;;;;;;9.29;72.41;95589.75;4949548;29;20446;-70
2023/02/24 03:04:53;;;;;;;13.20;9.30;;;;;;;9.21;72.52;95588.44;4948221;28;20643;-69
2023/02/24 03:07:21;;;;;;;17.30;10.50;;;;;;;9.24;72.67;95590.94;4948434;28;20464;-70
2023/02/24 03:09:57;;;;;;;12.13;10.30;;;;;;;9.16;72.74;95585.22;4949240;29;20500;-70
2023/02/24 03:12:25;;;;;;;15.57;10.47;;;;;;;9.11;73.41;95578.44;4949273;28;20485;-69
2023/02/24 03:14:59;;;;;;;15.40;10.67;;;;;;;9.19;72.96;95585.94;4949396;29;20425;-70
2023/02/24 03:17:29;;;;;;;22.23;13.60;;;;;;;9.14;72.98;95576.59;4949259;29;20418;-69
2023/02/24 03:20:31;;;;;;;16.13;12.30;;;;;;;9.10;73.92;95574.16;4949496;29;20497;-69
2023/02/24 03:23:20;;;;;;;15.20;11.43;;;;;;;9.00;73.98;95570.31;4947889;29;20441;-68
2023/02/24 03:26:02;;;;;;;13.40;11.40;;;;;;;9.05;73.70;95565.69;4948980;29;21003;-69
2023/02/24 03:28:36;;;;;;;13.03;10.97;;;;;;;8.97;74.18;95570.44;4949414;29;20414;-70
2023/02/24 03:31:16;;;;;;;16.67;11.47;;;;;;;9.04;73.76;95568.38;4960309;28;20467;-69
2023/02/24 03:33:59;;;;;;;19.10;11.93;;;;;;;9.08;73.66;95572.53;4968286;28;20409;-70
2023/02/24 03:36:26;;;;;;;17.13;11.87;;;;;;;9.13;72.87;95567.91;4968158;28;20824;-69
2023/02/24 03:38:52;;;;;;;14.50;11.83;;;;;;;9.01;73.00;95560.69;4968472;28;20473;-69
2023/02/24 03:41:18;;;;;;;14.73;11.40;;;;;;;8.88;73.85;95558.72;4968262;28;20861;-69
2023/02/24 03:43:46;;;;;;;16.47;12.80;;;;;;;8.83;74.50;95567.69;4968132;28;20178;-70
2023/02/24 03:46:15;;;;;;;14.40;11.00;;;;;;;8.80;73.74;95563.47;4967965;28;20631;-70
2023/02/24 03:48:50;;;;;;;17.67;12.53;;;;;;;8.84;74.69;95557.16;4968285;28;20419;-70
2023/02/24 03:51:18;;;;;;;14.27;10.40;;;;;;;8.80;74.21;95555.63;4968271;28;20462;-70
2023/02/24 03:54:10;;;;;;;20.20;12.00;;;;;;;8.69;74.57;95558.78;4968311;28;20502;-70
2023/02/24 03:56:56;;;;;;;13.03;10.93;;;;;;;8.80;74.53;95555.63;4968067;28;20427;-70
2023/02/24 03:59:26;;;;;;;15.90;10.23;;;;;;;8.73;73.96;95553.38;4967772;28;20428;-70
2023/02/24 04:02:03;;;;;;;13.47;11.77;;;;;;;8.64;74.67;95552.06;4968183;28;20456;-70
2023/02/24 04:04:38;;;;;;;14.67;10.90;;;;;;;8.48;75.32;95549.41;4968204;28;21136;-70
2023/02/24 04:07:22;;;;;;;16.00;12.17;;;;;;;8.40;74.77;95547.13;4969649;28;20432;-70
2023/02/24 04:10:03;;;;;;;15.17;10.73;;;;;;;8.51;74.73;95549.22;4971760;28;20448;-70
2023/02/24 04:12:37;;;;;;;15.33;10.97;;;;;;;8.41;74.98;95547.97;4971885;28;20422;-70
2023/02/24 04:15:22;;;;;;;15.20;11.37;;;;;;;8.31;75.55;95551.94;4972007;28;20417;-69
2023/02/24 04:17:53;;;;;;;10.67;9.60;;;;;;;8.31;75.72;95551.94;4971399;28;20490;-70
2023/02/24 04:20:21;;;;;;;13.70;10.20;;;;;;;8.40;75.30;95562.81;4971847;28;20436;-70
2023/02/24 04:22:50;;;;;;;18.50;10.83;;;;;;;8.41;74.61;95547.97;4971770;28;20420;-70
2023/02/24 04:25:23;;;;;;;18.93;11.40;;;;;;;8.46;74.51;95556.47;4971797;28;20420;-70
2023/02/24 04:27:53;;;;;;;19.67;10.23;;;;;;;8.36;74.98;95560.41;4971431;28;20425;-70
2023/02/24 04:30:20;;;;;;;13.93;10.10;;;;;;;8.32;74.71;95561.50;4965992;28;20461;-70
2023/02/24 04:32:45;;;;;;;15.30;11.50;;;;;;;8.09;75.49;95555.59;4953070;29;20504;-70
2023/02/24 04:35:13;;;;;;;13.13;10.10;;;;;;;8.29;74.66;95559.84;4954379;29;20471;-69
2023/02/24 04:37:39;;;;;;;13.63;10.13;;;;;;;8.21;74.46;95551.53;4952426;29;20186;-70
2023/02/24 04:40:12;;;;;;;13.30;10.00;;;;;;;8.41;74.54;95545.34;4953203;28;20436;-70
2023/02/24 04:42:47;;;;;;;10.57;9.47;;;;;;;8.25;74.35;95543.47;4950765;29;20663;-69
2023/02/24 04:45:22;;;;;;;15.70;9.87;;;;;;;8.30;74.98;95545.88;4952435;28;20424;-70
2023/02/24 04:47:50;;;;;;;13.70;10.63;;;;;;;8.32;74.66;95540.56;4952565;28;20551;-70
2023/02/24 04:50:24;;;;;;;13.40;9.53;;;;;;;8.36;73.85;95552.56;4952707;29;20473;-69
2023/02/24 04:52:56;;;;;;;11.33;10.13;;;;;;;8.28;73.80;95537.25;4954870;28;20409;-69
2023/02/24 04:55:25;;;;;;;12.03;9.20;;;;;;;8.26;74.36;95528.63;4955283;29;20907;-71
2023/02/24 04:57:54;;;;;;;12.37;10.50;;;;;;;8.11;74.36;95530.22;4956982;28;20875;-69
2023/02/24 05:00:21;;;;;;;17.30;10.00;;;;;;;8.25;73.81;95530.41;4959315;29;20476;-69
2023/02/24 05:02:50;;;;;;;12.17;8.77;;;;;;;8.25;73.90;95516.50;4961193;29;20429;-69
2023/02/24 05:05:24;;;;;;;10.73;8.97;;;;;;;8.32;73.47;95527.50;4957414;28;20430;-69
2023/02/24 05:07:53;;;;;;;17.73;10.17;;;;;;;8.05;73.86;95514.84;4954293;28;20421;-69
2023/02/24 05:10:19;;;;;;;15.10;8.80;;;;;;;8.04;74.28;95510.53;4951287;29;21118;-69
2023/02/24 05:12:44;;;;;;;14.93;11.13;;;;;;;8.04;73.98;95507.94;4951354;28;20414;-69
2023/02/24 05:15:13;;;;;;;13.73;10.10;;;;;;;7.94;74.01;95502.31;4951303;28;20194;-69
2023/02/24 05:17:39;;;;;;;9.90;8.10;;;;;;;7.75;74.76;95509.31;4950759;28;20306;-69
2023/02/24 05:22:50;;;;;;;12.40;10.47;;;;;;;7.83;74.13;95505.41;4951124;29;20509;-70
2023/02/24 05:25:17;;;;;;;12.27;6.93;;;;;;;7.96;73.84;95499.59;4951496;29;20489;-69
2023/02/24 05:27:43;;;;;;;10.33;8.27;;;;;;;8.00;73.19;95493.31;4951266;28;20651;-68
2023/02/24 05:30:09;;;;;;;14.43;8.63;;;;;;;7.48;75.06;95480.13;4955829;28;20535;-68
2023/02/24 05:32:37;;;;;;;20.87;9.37;;;;;;;7.08;76.21;95490.59;4971576;28;20185;-70
2023/02/24 05:35:04;;;;;;;9.97;8.17;;;;;;;7.46;75.37;95482.78;4970923;28;20490;-69
2023/02/24 05:37:30;;;;;;;15.53;10.17;;;;;;;7.66;74.95;95476.66;4970596;28;20479;-71
2023/02/24 05:39:59;;;;;;;19.07;10.17;;;;;;;7.70;74.49;95477.34;4970455;28;20405;-70
2023/02/24 05:42:26;;;;;;;22.30;9.40;;;;;;;7.61;74.49;95481.25;4969055;28;20424;-70
2023/02/24 05:44:52;;;;;;;15.50;9.60;;;;;;;7.69;75.07;95479.09;4969079;28;20425;-70
2023/02/24 05:47:18;;;;;;;20.17;11.17;;;;;;;7.69;74.72;95475.66;4970169;28;20448;-70
2023/02/24 05:49:44;;;;;;;13.10;9.13;;;;;;;7.54;74.42;95472.00;4970042;28;20453;-70
2023/02/24 05:52:10;;;;;;;11.90;8.27;;;;;;;7.63;74.07;95471.59;4970155;28;20457;-69
2023/02/24 05:54:40;;;;;;;20.37;8.70;;;;;;;7.64;73.34;95473.25;4966174;28;20177;-70
2023/02/24 05:57:19;;;;;;;13.30;8.40;;;;;;;7.66;73.75;95474.03;4965564;28;20417;-72
2023/02/24 05:59:48;;;;;;;11.40;10.20;;;;;;;7.55;73.78;95478.91;4968871;28;20440;-69
2023/02/24 06:02:16;;;;;;;11.13;9.50;;;;;;;7.54;73.58;95474.63;4969961;28;20461;-68
2023/02/24 06:04:49;;;;;;;16.17;9.80;;;;;;;7.59;73.81;95475.25;4969905;28;20409;-68
2023/02/24 06:07:21;;;;;;;13.70;10.50;;;;;;;7.50;73.45;95466.06;4967696;28;20499;-71
2023/02/24 06:09:48;;;;;;;28.73;12.37;;;;;;;7.50;73.32;95465.22;4969564;28;20417;-69
2023/02/24 06:12:15;;;;;;;35.43;13.57;;;;;;;7.57;73.02;95467.47;4979785;28;20416;-70
2023/02/24 06:14:41;;;;;;;22.27;12.27;;;;;;;7.59;73.50;95467.41;4974389;28;20445;-70
2023/02/24 06:17:09;;;;;;;27.43;12.23;;;;;;;7.60;72.85;95469.94;4969281;28;20424;-70
2023/02/24 06:19:35;;;;;;;23.83;11.50;;;;;;;7.62;73.71;95469.88;4969583;28;20651;-69
2023/02/24 06:22:01;;;;;;;23.67;10.80;;;;;;;7.67;73.62;95467.03;4968313;28;20452;-68
2023/02/24 06:24:29;;;;;;;18.60;10.63;;;;;;;7.71;72.81;95460.75;4973855;28;20631;-68
2023/02/24 06:27:04;;;;;;;14.97;10.23;;;;;;;7.77;72.90;95465.69;4977197;28;20437;-68
2023/02/24 06:29:30;;;;;;;15.47;11.00;;;;;;;7.54;73.23;95459.78;4975731;28;20527;-68
2023/02/24 06:31:59;;;;;;;17.83;11.07;;;;;;;7.65;73.78;95456.66;4979514;28;20495;-68
2023/02/24 06:34:25;;;;;;;19.33;10.57;;;;;;;7.59;72.83;95459.56;4983935;28;20185;-68
2023/02/24 06:36:51;;;;;;;21.50;10.57;;;;;;;7.52;73.95;95456.41;4982346;28;20841;-70
2023/02/24 06:39:17;;;;;;;16.67;11.07;;;;;;;7.48;73.88;95464.44;4979169;28;20764;-69
2023/02/24 06:41:42;;;;;;;16.40;11.30;;;;;;;7.54;74.34;95461.56;4980292;28;20463;-68
2023/02/24 06:44:08;;;;;;;14.00;10.30;;;;;;;7.64;73.61;95461.03;4977201;28;20192;-69
2023/02/24 06:46:34;;;;;;;14.00;10.03;;;;;;;7.53;73.53;95465.06;4965209;28;20228;-68
2023/02/24 06:48:59;;;;;;;12.77;10.70;;;;;;;7.39;74.54;95463.97;4964295;28;20255;-68
2023/02/24 06:51:28;;;;;;;23.07;11.63;;;;;;;7.49;73.77;95458.28;4964641;28;20217;-68
2023/02/24 06:53:55;;;;;;;31.43;15.53;;;;;;;7.61;73.55;95458.59;4960802;28;20178;-68
2023/02/24 06:56:21;;;;;;;34.80;15.50;;;;;;;7.63;73.08;95464.59;4963543;28;20436;-69
2023/02/24 06:58:49;;;;;;;23.80;14.53;;;;;;;7.65;73.30;95459.28;4976417;28;20809;-69
2023/02/24 07:01:17;;;;;;;32.80;14.07;;;;;;;7.62;72.91;95459.44;4965110;28;20197;-69
2023/02/24 07:04:16;;;;;;;26.27;14.00;;;;;;;7.53;73.01;95465.06;4963109;28;20439;-69
2023/02/24 07:06:35;;;;;;;26.43;16.03;;;;;;;7.58;72.78;95458.75;4964167;28;20440;-69
2023/02/24 07:09:12;;;;;;;27.10;14.80;;;;;;;7.50;73.03;95460.84;4964801;28;20448;-69
2023/02/24 07:11:42;;;;;;;49.43;17.13;;;;;;;7.63;73.15;95463.75;4963611;28;20481;-71
2023/02/24 07:14:10;;;;;;;23.10;12.03;;;;;;;7.72;71.87;95468.50;4960559;28;21012;-69
2023/02/24 07:16:36;;;;;;;19.83;11.87;;;;;;;7.68;71.90;95458.28;4961964;28;20437;-68
2023/02/24 07:19:09;;;;;;;14.77;11.90;;;;;;;7.80;71.60;95458.56;4964920;28;20444;-69
2023/02/24 07:21:38;;;;;;;15.83;10.90;;;;;;;7.70;72.00;95462.53;4965227;28;20478;-68
2023/02/24 07:24:08;;;;;;;45.53;13.90;;;;;;;7.71;72.19;95466.00;4962741;28;20433;-68
2023/02/24 07:26:34;;;;;;;27.53;12.23;;;;;;;7.71;71.82;95456.38;4959644;28;20430;-67
2023/02/24 07:29:03;;;;;;;24.80;13.53;;;;;;;7.61;72.52;95453.38;4959697;28;21217;-68
2023/02/24 07:31:31;;;;;;;18.33;11.63;;;;;;;7.84;72.00;95443.56;4963746;28;20213;-68
2023/02/24 07:33:59;;;;;;;21.47;10.47;;;;;;;7.83;71.83;95442.72;4966038;28;20914;-68
2023/02/24 07:36:28;;;;;;;23.47;11.87;;;;;;;7.87;71.63;95433.00;4966514;28;20432;-68
2023/02/24 07:39:00;;;;;;;14.00;10.73;;;;;;;7.85;71.22;95437.44;4964143;28;20468;-67
2023/02/24 07:41:26;;;;;;;18.48;12.07;;;;;;;7.93;71.21;95431.84;4965759;28;20441;-70
2023/02/24 07:43:53;;;;;;;19.13;11.70;;;;;;;7.90;70.54;95432.84;4965667;28;20190;-70
2023/02/24 07:46:23;;;;;;;16.23;11.10;;;;;;;7.67;72.45;95431.31;4965598;28;20471;-68
2023/02/24 07:48:51;;;;;;;17.87;12.73;;;;;;;7.80;71.57;95432.44;4949730;28;20472;-67
2023/02/24 07:51:19;;;;;;;20.13;12.90;;;;;;;7.87;71.46;95440.81;4956905;28;20985;-69
2023/02/24 07:53:49;;;;;;;19.27;11.73;;;;;;;7.91;71.77;95433.66;4983178;28;20412;-69
2023/02/24 07:56:18;;;;;;;37.30;14.63;;;;;;;7.90;71.89;95419.78;4964259;28;20445;-68
2023/02/24 07:58:50;;;;;;;22.83;12.93;;;;;;;7.79;71.72;95415.06;4965947;28;20413;-67
2023/02/24 08:01:26;;;;;;;53.90;14.83;;;;;;;7.85;71.75;95413.94;4967533;28;20512;-69
2023/02/24 08:03:55;;;;;;;24.03;13.27;;;;;;;7.74;72.45;95409.22;4965888;28;21175;-69
2023/02/24 08:06:36;;;;;;;26.90;14.50;;;;;;;7.79;72.36;95415.06;4965920;28;20417;-68
2023/02/24 08:09:15;;;;;;;30.97;14.43;;;;;;;7.97;72.33;95404.66;4966445;28;20432;-69
2023/02/24 08:11:44;;;;;;;22.60;13.70;;;;;;;8.02;71.40;95397.41;4965359;28;20460;-70
2023/02/24 08:14:13;;;;;;;21.00;12.33;;;;;;;7.98;71.49;95404.53;4963662;28;20410;-68
2023/02/24 08:16:44;;;;;;;22.10;13.67;;;;;;;8.01;71.36;95400.97;4964458;28;20437;-69
2023/02/24 08:19:12;;;;;;;19.33;12.67;;;;;;;8.04;71.10;95399.03;4966063;28;20436;-69
2023/02/24 08:21:49;;;;;;;25.10;14.90;;;;;;;8.09;71.10;95395.34;4962842;28;20919;-70
2023/02/24 08:24:17;;;;;;;18.13;12.07;;;;;;;8.03;71.38;95399.09;4967285;28;20408;-69
2023/02/24 08:26:44;;;;;;;18.73;13.23;;;;;;;8.08;70.86;95386.66;4966694;28;20513;-69
2023/02/24 08:29:11;;;;;;;23.80;13.33;;;;;;;8.12;71.11;95390.78;4948265;28;20413;-69
2023/02/24 08:31:36;;;;;;;22.60;13.33;;;;;;;8.02;71.98;95389.59;4959616;28;20472;-68
2023/02/24 08:34:02;;;;;;;20.30;12.53;;;;;;;8.15;71.30;95377.59;4966840;28;21213;-69
2023/02/24 08:36:27;;;;;;;18.90;14.80;;;;;;;7.96;72.31;95382.91;4956558;28;20703;-69
2023/02/24 08:38:52;;;;;;;22.97;13.60;;;;;;;8.13;71.96;95379.44;4966416;28;20186;-68
2023/02/24 08:41:25;;;;;;;20.00;12.10;;;;;;;8.18;71.89;95373.97;4964376;28;20221;-70
2023/02/24 08:43:54;;;;;;;21.00;12.57;;;;;;;8.36;71.39;95380.88;4966462;28;20272;-70
2023/02/24 08:46:31;;;;;;;17.73;11.97;;;;;;;8.35;71.32;95380.97;4965780;28;20416;-70
2023/02/24 08:48:59;;;;;;;23.03;12.67;;;;;;;8.36;71.12;95374.78;4964915;28;20440;-68
2023/02/24 08:51:28;;;;;;;20.83;13.20;;;;;;;8.37;71.00;95371.28;4962847;28;20468;-69
2023/02/24 08:53:56;;;;;;;22.33;13.70;;;;;;;8.40;71.55;95368.53;4969296;28;20427;-69
2023/02/24 08:56:28;;;;;;;26.90;14.67;;;;;;;8.48;71.07;95371.59;4949601;28;20861;-69
2023/02/24 08:59:04;;;;;;;23.60;17.03;;;;;;;8.51;70.66;95373.22;4952465;29;20493;-71
2023/02/24 09:01:33;;;;;;;29.73;17.83;;;;;;;8.57;71.57;95365.03;4951764;28;20521;-69
2023/02/24 09:04:02;;;;;;;36.80;18.57;;;;;;;8.62;71.03;95363.88;4950382;28;21235;-70
2023/02/24 09:07:05;;;;;;;30.87;19.20;;;;;;;8.53;71.05;95361.75;4956761;28;20476;-68
2023/02/24 09:09:31;;;;;;;34.53;20.80;;;;;;;8.62;70.62;95350.78;4958365;28;20426;-69
2023/02/24 09:11:58;;;;;;;37.53;21.67;;;;;;;8.67;70.74;95351.38;4950189;28;20443;-67
2023/02/24 09:14:41;;;;;;;40.67;19.10;;;;;;;8.66;70.91;95360.16;4950477;28;20181;-68
2023/02/24 09:17:19;;;;;;;34.50;19.23;;;;;;;8.71;71.45;95346.81;4951365;29;20413;-69
2023/02/24 09:22:31;;;;;;;29.23;16.90;;;;;;;8.89;70.59;95348.47;4969986;28;20437;-68
2023/02/24 09:25:22;;;;;;;28.95;17.75;;;;;;;9.13;69.77;95350.66;4967673;28;20420;-68
2023/02/24 09:28:06;;;;;;;24.97;15.77;;;;;;;8.96;71.45;95342.91;4959103;28;20181;-71
2023/02/24 09:30:35;;;;;;;21.50;15.63;;;;;;;9.21;70.40;95340.63;4968841;28;21093;-68
2023/02/24 09:33:07;;;;;;;22.30;15.47;;;;;;;9.09;70.67;95330.81;4968726;28;20898;-68
2023/02/24 09:35:40;;;;;;;20.97;13.70;;;;;;;9.17;70.58;95335.66;4965258;28;20456;-69
2023/02/24 09:38:06;;;;;;;20.57;13.47;;;;;;;9.35;69.90;95329.38;4967454;28;20444;-70
2023/02/24 09:40:39;;;;;;;30.43;17.07;;;;;;;9.49;69.32;95329.44;4967807;28;21074;-68
2023/02/24 09:43:17;;;;;;;26.67;15.20;;;;;;;9.65;68.92;95323.34;4966677;28;20189;-67
2023/02/24 09:45:57;;;;;;;25.57;14.30;;;;;;;9.71;68.49;95315.97;4966911;28;20544;-69
2023/02/24 09:48:44;;;;;;;35.10;16.98;;;;;;;9.78;69.19;95305.13;4963724;28;20430;-68
2023/02/24 09:51:21;;;;;;;24.17;16.47;;;;;;;9.67;69.20;95300.50;4967921;28;20205;-68
2023/02/24 09:53:53;;;;;;;27.27;16.73;;;;;;;9.62;69.59;95305.19;4966578;28;20438;-68
2023/02/24 09:56:41;;;;;;;25.67;14.50;;;;;;;9.61;70.00;95306.09;4967946;28;20436;-68
2023/02/24 09:59:39;;;;;;;47.73;17.10;;;;;;;9.70;69.31;95316.88;4965971;28;20432;-68
2023/02/24 10:02:31;;;;;;;30.40;15.50;;;;;;;9.87;68.88;95304.56;4962305;28;20479;-69
2023/02/24 10:05:13;;;;;;;28.23;14.73;;;;;;;9.94;68.15;95301.53;4965941;28;20886;-69
2023/02/24 10:07:42;;;;;;;23.03;15.00;;;;;;;10.04;67.68;95291.34;4965907;28;20425;-69
2023/02/24 10:10:33;;;;;;;39.70;16.77;;;;;;;10.12;67.40;95293.50;4965489;28;20559;-69
2023/02/24 10:13:16;;;;;;;33.50;15.63;;;;;;;10.31;66.88;95290.66;4965090;28;20463;-69
2023/02/24 10:18:39;;;;;;;37.60;14.40;;;;;;;10.43;66.61;95286.44;4967532;28;20441;-70
2023/02/24 10:21:16;;;;;;;25.63;15.20;;;;;;;10.54;66.30;95279.59;4966304;28;20452;-67
2023/02/24 10:23:58;;;;;;;30.00;14.87;;;;;;;10.55;66.80;95277.81;4963175;28;20435;-69
2023/02/24 10:27:14;;;;;;;21.67;15.50;;;;;;;10.33;67.35;95273.03;4966952;28;20468;-68
2023/02/24 10:30:04;;;;;;;24.77;14.47;;;;;;;10.21;67.86;95264.09;4963628;28;20468;-69
2023/02/24 10:32:35;;;;;;;25.63;16.33;;;;;;;10.27;67.53;95268.97;4965103;28;20456;-69
2023/02/24 10:35:01;;;;;;;27.20;18.10;;;;;;;10.27;68.21;95262.88;4966073;28;20459;-68
2023/02/24 10:37:28;;;;;;;28.37;16.93;;;;;;;10.38;67.27;95270.97;4966670;28;21082;-69
2023/02/24 10:40:08;;;;;;;26.67;16.57;;;;;;;10.43;67.22;95261.03;4966734;28;20268;-70
2023/02/24 10:42:36;;;;;;;25.73;16.53;;;;;;;10.39;67.78;95267.41;4966401;28;20420;-68
2023/02/24 10:45:16;;;;;;;23.60;15.63;;;;;;;10.44;67.79;95267.13;4964335;28;20516;-68
2023/02/24 10:47:45;;;;;;;24.03;15.73;;;;;;;10.35;67.88;95261.53;4965452;28;20424;-70
2023/02/24 10:50:22;;;;;;;23.77;13.90;;;;;;;10.40;68.01;95252.53;4966632;28;20472;-70
2023/02/24 10:58:43;;;;;;;18.50;13.37;;;;;;;10.46;68.03;95247.72;4964124;28;20444;-70
2023/02/24 11:01:39;;;;;;;24.17;15.57;;;;;;;10.57;67.86;95249.69;4966486;28;20604;-68
2023/02/24 11:04:21;;;;;;;22.03;14.07;;;;;;;10.58;67.91;95244.38;4964778;28;21322;-68
2023/02/24 11:06:51;;;;;;;27.87;15.90;;;;;;;10.64;67.79;95237.06;4964924;28;20568;-69
2023/02/24 11:17:57;;;;;;;29.30;16.80;;;;;;;10.84;66.98;95209.53;4964002;28;20541;-70
2023/02/24 11:20:27;;;;;;;28.70;17.27;;;;;;;10.80;67.15;95207.13;4966499;28;20192;-70
2023/02/24 11:22:54;;;;;;;29.00;15.70;;;;;;;10.77;67.63;95196.81;4966612;28;20433;-69
2023/02/24 11:25:20;;;;;;;27.07;16.83;;;;;;;10.76;67.83;95192.50;4965269;28;20994;-68
2023/02/24 11:27:46;;;;;;;28.60;17.10;;;;;;;10.91;67.28;95193.28;4966400;28;20472;-69
2023/02/24 11:30:28;;;;;;;35.60;19.97;;;;;;;10.91;67.61;95189.81;4966145;28;20617;-69
2023/02/24 11:33:11;;;;;;;27.90;18.90;;;;;;;11.01;67.06;95176.00;4962565;28;20440;-69
2023/02/24 11:35:57;;;;;;;33.80;21.43;;;;;;;11.10;67.13;95173.72;4965884;28;20432;-69
2023/02/24 11:38:38;;;;;;;35.27;21.40;;;;;;;11.16;67.24;95176.78;4963925;28;20457;-69
2023/02/24 11:41:24;;;;;;;32.30;22.27;;;;;;;11.07;67.53;95164.25;4961323;28;20456;-70
2023/02/24 11:44:00;;;;;;;36.07;20.43;;;;;;;11.14;67.60;95169.97;4963336;28;21049;-69
2023/02/24 11:46:40;;;;;;;61.50;23.40;;;;;;;11.23;66.62;95162.31;4966130;28;20429;-69
2023/02/24 11:49:24;;;;;;;31.77;18.00;;;;;;;11.31;66.57;95155.72;4966463;28;20424;-69
2023/02/24 11:51:51;;;;;;;27.80;17.40;;;;;;;11.36;66.88;95148.34;4957601;28;20559;-69
2023/02/24 11:54:17;;;;;;;37.73;18.83;;;;;;;11.54;66.11;95148.91;4961336;28;20440;-71
2023/02/24 11:56:47;;;;;;;26.80;15.80;;;;;;;11.83;66.13;95139.91;4967471;28;20417;-70
2023/02/24 11:59:12;;;;;;;30.00;16.20;;;;;;;11.84;65.05;95131.03;4966268;28;20213;-70
2023/02/24 12:01:58;;;;;;;50.20;19.07;;;;;;;11.99;66.53;95125.69;4967284;28;20468;-71
2023/02/24 12:04:43;;;;;;;139.77;25.67;;;;;;;12.06;64.54;95126.94;4966867;28;20678;-69
2023/02/24 12:07:13;;;;;;;46.30;20.27;;;;;;;11.93;64.84;95118.22;4966418;28;20492;-70
2023/02/24 12:09:46;;;;;;;29.67;16.00;;;;;;;11.90;65.47;95108.78;4966620;28;20436;-72
2023/02/24 12:12:16;;;;;;;29.53;16.93;;;;;;;11.96;65.76;95110.97;4965923;28;20464;-71
2023/02/24 12:14:50;;;;;;;36.30;17.00;;;;;;;12.30;65.04;95103.31;4960344;28;20856;-72
2023/02/24 12:17:27;;;;;;;48.97;19.77;;;;;;;12.70;64.68;95096.03;4963866;28;21320;-70